createdAt,value
2023-12-11T00:01:08.982Z,6.68
2023-12-11T00:03:36.058Z,6.67
2023-12-11T00:06:03.740Z,6.55
2023-12-11T00:08:30.700Z,6.62
2023-12-11T00:10:57.640Z,6.61
2023-12-11T00:13:24.738Z,6.63
2023-12-11T00:15:51.613Z,6.56
2023-12-11T00:18:18.666Z,6.55
2023-12-11T00:20:45.715Z,6.47
2023-12-11T00:23:12.645Z,6.50
2023-12-11T00:25:46.020Z,6.48
2023-12-11T00:28:13.064Z,6.46
2023-12-11T00:30:40.022Z,6.44
2023-12-11T00:33:06.964Z,6.43
2023-12-11T00:35:33.935Z,6.39
2023-12-11T00:38:00.920Z,6.43
2023-12-11T00:40:27.829Z,6.49
2023-12-11T00:42:54.735Z,6.41
2023-12-11T00:45:21.628Z,6.53
2023-12-11T00:47:48.573Z,6.51
2023-12-11T00:50:15.637Z,6.51
2023-12-11T00:52:43.249Z,6.40
2023-12-11T00:55:10.438Z,6.52
2023-12-11T00:57:37.442Z,6.44
2023-12-11T01:00:04.893Z,6.45
2023-12-11T01:02:31.788Z,6.33
2023-12-11T01:04:59.149Z,6.41
2023-12-11T01:07:26.087Z,6.43
2023-12-11T01:09:52.957Z,6.56
2023-12-11T01:12:20.423Z,6.48
2023-12-11T01:14:47.358Z,6.55
2023-12-11T01:17:37.043Z,6.68
2023-12-11T01:20:01.345Z,6.57
2023-12-11T01:22:28.393Z,6.78
2023-12-11T01:24:55.344Z,6.68
2023-12-11T01:27:22.305Z,6.80
2023-12-11T01:29:49.167Z,6.79
2023-12-11T01:32:16.004Z,6.87
2023-12-11T01:34:43.033Z,6.84
2023-12-11T01:37:10.165Z,6.90
2023-12-11T01:39:37.117Z,6.89
2023-12-11T01:42:04.247Z,6.88
2023-12-11T01:44:31.814Z,6.95
2023-12-11T01:46:58.691Z,6.94
2023-12-11T01:49:25.948Z,7.00
2023-12-11T01:51:53.037Z,6.85
2023-12-11T01:54:20.982Z,7.03
2023-12-11T01:56:48.147Z,6.99
2023-12-11T01:59:15.368Z,7.03
2023-12-11T02:01:43.359Z,7.02
2023-12-11T02:04:10.599Z,7.00
2023-12-11T02:06:37.785Z,7.02
2023-12-11T02:09:05.362Z,6.91
2023-12-11T02:11:32.651Z,6.97
2023-12-11T02:13:59.534Z,6.97
2023-12-11T02:16:26.558Z,6.96
2023-12-11T02:18:53.748Z,6.82
2023-12-11T02:21:22.283Z,6.93
2023-12-11T02:23:49.127Z,6.92
2023-12-11T02:26:18.032Z,6.92
2023-12-11T02:28:45.630Z,6.94
2023-12-11T02:31:13.443Z,6.95
2023-12-11T02:33:40.788Z,6.90
2023-12-11T02:36:08.092Z,6.97
2023-12-11T02:38:35.138Z,6.98
2023-12-11T02:41:02.079Z,6.98
2023-12-11T02:43:28.962Z,6.81
2023-12-11T02:45:55.866Z,6.87
2023-12-11T02:48:22.959Z,7.04
2023-12-11T02:50:50.035Z,7.02
2023-12-11T02:53:17.028Z,7.02
2023-12-11T02:55:43.940Z,6.94
2023-12-11T02:58:11.205Z,7.05
2023-12-11T03:00:38.327Z,6.98
2023-12-11T03:03:05.427Z,7.04
2023-12-11T03:05:32.472Z,7.12
2023-12-11T03:07:59.394Z,7.13
2023-12-11T03:10:26.419Z,7.13
2023-12-11T03:12:53.317Z,7.20
2023-12-11T03:15:20.419Z,7.19
2023-12-11T03:17:48.488Z,7.28
2023-12-11T03:20:15.728Z,7.35
2023-12-11T03:22:42.861Z,7.36
2023-12-11T03:25:09.986Z,7.41
2023-12-11T03:27:37.212Z,7.45
2023-12-11T03:30:04.378Z,7.45
2023-12-11T03:32:31.346Z,7.51
2023-12-11T03:34:58.332Z,7.43
2023-12-11T03:37:25.391Z,7.43
2023-12-11T03:39:52.320Z,7.34
2023-12-11T03:42:19.224Z,7.31
2023-12-11T03:44:46.163Z,7.26
2023-12-11T03:47:13.558Z,7.12
2023-12-11T03:49:40.871Z,7.08
2023-12-11T03:52:08.042Z,7.19
2023-12-11T03:54:35.080Z,7.17
2023-12-11T03:57:01.960Z,7.23
2023-12-11T03:59:28.797Z,7.27
2023-12-11T04:01:55.845Z,7.23
2023-12-11T04:04:22.809Z,7.24
2023-12-11T04:06:49.834Z,7.29
2023-12-11T04:09:16.711Z,7.25
2023-12-11T04:11:45.485Z,7.23
2023-12-11T04:14:13.039Z,7.20
2023-12-11T04:16:43.526Z,7.25
2023-12-11T04:19:12.343Z,7.14
2023-12-11T04:21:39.742Z,7.03
2023-12-11T04:24:06.838Z,7.10
2023-12-11T04:26:33.727Z,7.04
2023-12-11T04:29:00.846Z,7.13
2023-12-11T04:31:27.799Z,7.11
2023-12-11T04:33:54.937Z,7.16
2023-12-11T04:36:22.012Z,7.15
2023-12-11T04:38:48.919Z,7.23
2023-12-11T04:41:15.760Z,7.20
2023-12-11T04:43:42.725Z,7.23
2023-12-11T04:46:09.630Z,7.35
2023-12-11T04:48:36.712Z,7.34
2023-12-11T04:51:04.900Z,7.38
2023-12-11T04:53:31.749Z,7.45
2023-12-11T04:55:58.638Z,7.51
2023-12-11T04:58:25.569Z,7.51
2023-12-11T05:00:52.526Z,7.50
2023-12-11T05:03:19.480Z,7.49
2023-12-11T05:05:46.371Z,7.49
2023-12-11T05:08:13.889Z,7.48
2023-12-11T05:10:40.837Z,7.42
2023-12-11T05:13:07.858Z,7.41
2023-12-11T05:15:34.741Z,7.32
2023-12-11T05:18:01.805Z,7.34
2023-12-11T05:20:28.713Z,7.22
2023-12-11T05:22:55.793Z,7.06
2023-12-11T05:25:22.734Z,7.03
2023-12-11T05:27:49.635Z,6.89
2023-12-11T05:30:17.083Z,6.82
2023-12-11T05:32:45.415Z,6.85
2023-12-11T05:35:12.403Z,6.73
2023-12-11T05:37:39.357Z,6.38
2023-12-11T05:40:21.653Z,6.82
2023-12-11T05:42:51.193Z,6.77
2023-12-11T05:45:18.153Z,6.77
2023-12-11T05:47:45.023Z,6.91
2023-12-11T05:50:13.353Z,6.88
2023-12-11T05:52:40.249Z,6.90
2023-12-11T05:55:07.456Z,6.90
2023-12-11T05:57:34.505Z,6.96
2023-12-11T06:00:01.405Z,6.97
2023-12-11T06:02:28.678Z,6.93
2023-12-11T06:04:55.730Z,6.87
2023-12-11T06:07:22.716Z,6.80
2023-12-11T06:09:49.835Z,6.70
2023-12-11T06:12:17.328Z,6.66
2023-12-11T06:14:47.208Z,6.77
2023-12-11T06:17:16.034Z,6.68
2023-12-11T06:19:45.922Z,6.79
2023-12-11T06:22:13.219Z,6.87
2023-12-11T06:24:41.573Z,6.92
2023-12-11T06:27:09.237Z,6.89
2023-12-11T06:29:37.058Z,6.97
2023-12-11T06:32:04.225Z,6.88
2023-12-11T06:34:31.756Z,6.78
2023-12-11T06:36:59.111Z,7.03
2023-12-11T06:39:28.523Z,7.04
2023-12-11T06:41:55.612Z,7.14
2023-12-11T06:44:23.703Z,7.18
2023-12-11T06:46:50.669Z,7.19
2023-12-11T06:49:17.731Z,7.07
2023-12-11T06:51:44.890Z,7.02
2023-12-11T06:54:12.628Z,6.85
2023-12-11T06:56:40.245Z,6.79
2023-12-11T06:59:07.199Z,6.76
2023-12-11T07:01:36.045Z,6.68
2023-12-11T07:04:04.379Z,6.66
2023-12-11T07:06:31.561Z,6.69
2023-12-11T07:08:58.714Z,6.61
2023-12-11T07:11:26.076Z,6.59
2023-12-11T07:13:54.070Z,6.55
2023-12-11T07:16:21.159Z,6.65
2023-12-11T07:18:48.372Z,6.59
2023-12-11T07:21:15.435Z,6.65
2023-12-11T07:23:42.954Z,6.68
2023-12-11T07:26:11.370Z,6.72
2023-12-11T07:28:40.215Z,6.60
2023-12-11T07:31:07.731Z,6.79
2023-12-11T07:33:35.421Z,6.85
2023-12-11T07:36:03.675Z,6.85
2023-12-11T07:38:31.641Z,6.80
2023-12-11T07:40:59.035Z,6.86
2023-12-11T07:43:26.176Z,6.93
2023-12-11T07:45:53.936Z,6.95
2023-12-11T07:48:21.744Z,6.96
2023-12-11T07:50:49.227Z,6.97
2023-12-11T07:53:16.192Z,6.86
2023-12-11T07:55:43.184Z,6.81
2023-12-11T07:58:12.003Z,6.87
2023-12-11T08:00:39.118Z,6.71
2023-12-11T08:03:07.662Z,6.87
2023-12-11T08:05:34.850Z,7.07
2023-12-11T08:08:02.923Z,7.14
2023-12-11T08:10:30.237Z,7.30
2023-12-11T08:12:57.265Z,7.40
2023-12-11T08:15:24.148Z,7.56
2023-12-11T08:17:51.090Z,7.70
2023-12-11T08:20:19.265Z,7.82
2023-12-11T08:22:46.819Z,8.02
2023-12-11T08:25:15.178Z,8.28
2023-12-11T08:27:43.851Z,8.43
2023-12-11T08:30:12.491Z,8.68
2023-12-11T08:32:41.144Z,8.82
2023-12-11T08:35:09.936Z,8.96
2023-12-11T08:37:38.030Z,9.06
2023-12-11T08:40:06.987Z,9.12
2023-12-11T08:42:40.314Z,9.13
2023-12-11T08:45:09.554Z,9.14
2023-12-11T08:47:39.391Z,9.16
2023-12-11T08:50:09.193Z,9.07
2023-12-11T08:52:38.191Z,9.29
2023-12-11T08:55:06.723Z,9.39
2023-12-11T08:57:34.701Z,9.45
2023-12-11T09:00:01.736Z,9.48
2023-12-11T09:02:28.644Z,9.58
2023-12-11T09:04:55.648Z,9.50
2023-12-11T09:07:22.758Z,9.59
2023-12-11T09:09:49.616Z,9.76
2023-12-11T09:12:27.821Z,9.96
2023-12-11T09:15:00.497Z,10.27
2023-12-11T09:17:27.580Z,10.45
2023-12-11T09:19:56.127Z,10.72
2023-12-11T09:22:24.335Z,10.81
2023-12-11T09:24:51.786Z,10.99
2023-12-11T09:27:18.846Z,11.18
2023-12-11T09:29:49.975Z,11.35
2023-12-11T09:32:17.467Z,11.49
2023-12-11T09:34:44.656Z,11.84
2023-12-11T09:37:11.869Z,12.10
2023-12-11T09:39:40.516Z,12.19
2023-12-11T09:42:09.373Z,12.36
2023-12-11T09:44:37.274Z,12.47
2023-12-11T09:47:16.265Z,12.69
2023-12-11T09:49:45.384Z,12.90
2023-12-11T09:52:15.115Z,12.96
2023-12-11T09:54:43.074Z,13.06
2023-12-11T09:57:16.481Z,13.07
2023-12-11T09:59:44.344Z,13.10
2023-12-11T10:02:20.162Z,13.09
2023-12-11T10:05:03.009Z,13.13
2023-12-11T10:07:30.406Z,12.86
2023-12-11T10:09:57.404Z,12.92
2023-12-11T10:12:24.310Z,12.98
2023-12-11T10:15:02.441Z,12.97
2023-12-11T10:17:30.883Z,12.74
2023-12-11T10:19:58.053Z,12.59
2023-12-11T10:22:32.396Z,12.40
2023-12-11T10:24:59.578Z,12.29
2023-12-11T10:27:27.725Z,12.26
2023-12-11T10:30:09.547Z,12.35
2023-12-11T10:32:36.502Z,12.44
2023-12-11T10:35:03.982Z,12.56
2023-12-11T10:37:35.792Z,12.71
2023-12-11T10:40:04.962Z,12.89
2023-12-11T10:42:32.053Z,13.10
2023-12-11T10:44:58.981Z,13.17
2023-12-11T10:47:27.885Z,13.32
2023-12-11T10:49:55.199Z,13.42
2023-12-11T10:52:22.468Z,13.47
2023-12-11T10:54:49.449Z,13.58
2023-12-11T10:57:18.558Z,13.57
2023-12-11T10:59:46.009Z,13.56
2023-12-11T11:02:16.931Z,13.52
2023-12-11T11:04:46.599Z,13.48
2023-12-11T11:07:26.589Z,13.29
2023-12-11T11:10:11.551Z,13.23
2023-12-11T11:12:57.446Z,13.09
2023-12-11T11:15:27.590Z,13.06
2023-12-11T11:18:00.546Z,12.97
2023-12-11T11:20:38.321Z,12.85
2023-12-11T11:23:20.380Z,12.69
2023-12-11T11:25:54.051Z,12.47
2023-12-11T11:28:44.437Z,12.44
2023-12-11T11:31:20.195Z,12.32
2023-12-11T11:33:55.044Z,12.17
2023-12-11T11:36:46.607Z,12.18
2023-12-11T11:39:13.889Z,12.10
2023-12-11T11:41:42.778Z,12.07
2023-12-11T11:44:11.203Z,12.00
2023-12-11T11:47:02.068Z,12.01
2023-12-11T11:49:36.770Z,12.04
2023-12-11T11:52:08.822Z,12.12
2023-12-11T11:54:40.686Z,12.15
2023-12-11T11:57:07.974Z,12.16
2023-12-11T11:59:45.123Z,12.19
2023-12-11T12:02:11.990Z,12.18
2023-12-11T12:04:38.902Z,12.17
2023-12-11T12:07:06.883Z,12.08
2023-12-11T12:09:35.557Z,12.16
2023-12-11T12:12:02.815Z,12.02
2023-12-11T12:14:29.826Z,12.08
2023-12-11T12:16:57.038Z,12.11
2023-12-11T12:19:32.638Z,12.10
2023-12-11T12:22:00.347Z,12.25
2023-12-11T12:24:27.422Z,12.31
2023-12-11T12:27:01.313Z,12.42
2023-12-11T12:29:31.149Z,12.57
2023-12-11T12:31:59.381Z,12.58
2023-12-11T12:34:27.394Z,12.58
2023-12-11T12:36:58.663Z,12.55
2023-12-11T12:39:25.694Z,12.52
2023-12-11T12:41:54.773Z,12.35
2023-12-11T12:44:22.558Z,12.38
2023-12-11T12:46:49.483Z,12.25
2023-12-11T12:49:17.967Z,12.24
2023-12-11T12:51:52.883Z,12.24
2023-12-11T12:54:20.589Z,12.20
2023-12-11T12:57:00.294Z,12.21
2023-12-11T12:59:27.527Z,12.21
2023-12-11T13:01:54.636Z,12.14
2023-12-11T13:04:21.783Z,12.13
2023-12-11T13:06:48.771Z,12.08
2023-12-11T13:09:30.512Z,12.12
2023-12-11T13:11:57.307Z,12.13
2023-12-11T13:14:27.012Z,12.08
2023-12-11T13:16:54.791Z,12.05
2023-12-11T13:19:21.907Z,12.01
2023-12-11T13:21:49.359Z,11.91
2023-12-11T13:24:16.232Z,11.85
2023-12-11T13:26:43.184Z,11.74
2023-12-11T13:29:10.034Z,11.69
2023-12-11T13:31:36.808Z,11.73
2023-12-11T13:34:03.759Z,11.66
2023-12-11T13:36:30.606Z,11.70
2023-12-11T13:38:57.459Z,11.64
2023-12-11T13:41:24.327Z,11.65
2023-12-11T13:43:51.219Z,11.51
2023-12-11T13:46:18.062Z,11.63
2023-12-11T13:48:46.755Z,11.50
2023-12-11T13:51:13.773Z,11.60
2023-12-11T13:53:40.620Z,11.60
2023-12-11T13:56:07.899Z,11.53
2023-12-11T13:58:34.836Z,11.54
2023-12-11T14:01:02.282Z,11.52
2023-12-11T14:03:29.328Z,11.46
2023-12-11T14:05:56.293Z,11.43
2023-12-11T14:08:23.203Z,11.41
2023-12-11T14:10:50.398Z,11.31
2023-12-11T14:13:17.361Z,11.35
2023-12-11T14:15:46.889Z,11.32
2023-12-11T14:18:14.713Z,11.17
2023-12-11T14:20:41.692Z,11.19
2023-12-11T14:23:08.763Z,11.10
2023-12-11T14:25:35.684Z,11.06
2023-12-11T14:28:06.068Z,10.99
2023-12-11T14:30:37.824Z,10.91
2023-12-11T14:33:06.303Z,10.96
2023-12-11T14:35:33.483Z,10.90
2023-12-11T14:38:00.568Z,10.83
2023-12-11T14:40:27.530Z,10.82
2023-12-11T14:42:54.568Z,10.77
2023-12-11T14:45:21.494Z,10.74
2023-12-11T14:47:48.406Z,10.73
2023-12-11T14:50:15.535Z,10.72
2023-12-11T14:52:43.251Z,10.66
2023-12-11T14:55:10.284Z,10.57
2023-12-11T14:57:38.215Z,10.62
2023-12-11T15:00:07.011Z,10.57
2023-12-11T15:02:34.711Z,10.56
2023-12-11T15:05:01.824Z,10.54
2023-12-11T15:07:29.504Z,10.50
2023-12-11T15:09:56.822Z,10.42
2023-12-11T15:12:24.333Z,10.34
2023-12-11T15:14:51.652Z,10.42
2023-12-11T15:17:18.483Z,10.35
2023-12-11T15:19:46.792Z,10.36
2023-12-11T15:22:14.187Z,10.27
2023-12-11T15:24:41.219Z,10.27
2023-12-11T15:27:08.338Z,10.20
2023-12-11T15:29:38.148Z,10.19
2023-12-11T15:32:06.239Z,10.21
2023-12-11T15:34:33.642Z,10.22
2023-12-11T15:37:00.726Z,10.25
2023-12-11T15:39:27.621Z,10.12
2023-12-11T15:41:54.509Z,10.17
2023-12-11T15:44:21.409Z,10.16
2023-12-11T15:46:48.277Z,10.05
2023-12-11T15:49:15.216Z,10.05
2023-12-11T15:51:42.219Z,10.03
2023-12-11T15:54:12.105Z,9.99
2023-12-11T15:56:39.199Z,9.92
2023-12-11T15:59:06.001Z,9.83
2023-12-11T16:01:33.086Z,9.77
2023-12-11T16:04:00.904Z,9.72
2023-12-11T16:06:29.616Z,9.74
2023-12-11T16:08:56.448Z,9.74
2023-12-11T16:11:23.265Z,9.66
2023-12-11T16:13:50.077Z,9.66
2023-12-11T16:16:19.487Z,9.74
2023-12-11T16:18:48.114Z,9.74
2023-12-11T16:21:15.101Z,9.77
2023-12-11T16:23:41.970Z,9.73
2023-12-11T16:26:15.048Z,9.66
2023-12-11T16:28:42.131Z,9.48
2023-12-11T16:31:09.785Z,9.38
2023-12-11T16:33:36.896Z,9.30
2023-12-11T16:36:03.986Z,9.16
2023-12-11T16:38:30.887Z,9.04
2023-12-11T16:40:57.808Z,9.03
2023-12-11T16:43:24.664Z,9.07
2023-12-11T16:45:51.514Z,9.00
2023-12-11T16:48:18.526Z,9.09
2023-12-11T16:50:45.986Z,9.16
2023-12-11T16:53:12.940Z,9.14
2023-12-11T16:55:39.880Z,9.10
2023-12-11T16:58:08.760Z,9.12
2023-12-11T17:00:35.748Z,9.11
2023-12-11T17:03:02.593Z,9.03
2023-12-11T17:05:30.139Z,9.03
2023-12-11T17:07:57.090Z,8.97
2023-12-11T17:10:24.640Z,8.98
2023-12-11T17:12:52.482Z,8.93
2023-12-11T17:15:19.487Z,8.89
2023-12-11T17:17:46.356Z,8.81
2023-12-11T17:20:13.396Z,8.78
2023-12-11T17:22:40.288Z,8.74
2023-12-11T17:25:07.639Z,8.54
2023-12-11T17:27:34.933Z,8.36
2023-12-11T17:30:03.870Z,8.32
2023-12-11T17:32:32.654Z,8.16
2023-12-11T17:35:00.290Z,8.23
2023-12-11T17:37:27.385Z,8.20
2023-12-11T17:39:55.738Z,8.11
2023-12-11T17:42:22.636Z,8.07
2023-12-11T17:44:49.534Z,8.07
2023-12-11T17:47:16.371Z,8.01
2023-12-11T17:49:43.796Z,7.96
2023-12-11T17:52:12.161Z,8.00
2023-12-11T17:54:39.279Z,8.05
2023-12-11T17:57:06.388Z,8.05
2023-12-11T17:59:33.283Z,8.04
2023-12-11T18:02:00.184Z,8.15
2023-12-11T18:04:27.171Z,8.13
2023-12-11T18:06:55.188Z,8.27
2023-12-11T18:09:22.137Z,8.24
2023-12-11T18:11:49.001Z,8.38
2023-12-11T18:14:15.860Z,8.28
2023-12-11T18:16:42.666Z,8.45
2023-12-11T18:19:09.574Z,8.46
2023-12-11T18:21:36.477Z,8.45
2023-12-11T18:24:05.990Z,8.46
2023-12-11T18:26:32.791Z,8.25
2023-12-11T18:28:59.651Z,8.50
2023-12-11T18:31:26.649Z,8.54
2023-12-11T18:33:53.714Z,8.62
2023-12-11T18:36:20.694Z,8.62
2023-12-11T18:38:47.505Z,8.65
2023-12-11T18:41:24.585Z,8.58
2023-12-11T18:43:51.820Z,8.63
2023-12-11T18:46:20.067Z,8.51
2023-12-11T18:48:47.107Z,8.51
2023-12-11T18:51:24.295Z,8.56
2023-12-11T18:53:51.261Z,8.43
2023-12-11T18:56:23.443Z,8.51
2023-12-11T18:58:50.818Z,8.52
2023-12-11T19:01:17.927Z,8.40
2023-12-11T19:03:45.103Z,8.47
2023-12-11T19:06:12.081Z,8.44
2023-12-11T19:08:39.135Z,8.41
2023-12-11T19:11:07.442Z,8.43
2023-12-11T19:13:34.372Z,8.40
2023-12-11T19:16:01.518Z,8.39
2023-12-11T19:18:28.555Z,8.33
2023-12-11T19:20:55.564Z,8.35
2023-12-11T19:23:22.884Z,8.31
2023-12-11T19:25:49.769Z,8.43
2023-12-11T19:28:16.669Z,8.41
2023-12-11T19:30:43.610Z,8.37
2023-12-11T19:33:10.738Z,8.35
2023-12-11T19:35:37.565Z,8.41
2023-12-11T19:38:05.009Z,8.45
2023-12-11T19:40:31.945Z,8.46
2023-12-11T19:42:58.973Z,8.41
2023-12-11T19:45:25.811Z,8.33
2023-12-11T19:47:52.810Z,8.22
2023-12-11T19:50:19.851Z,8.18
2023-12-11T19:52:51.048Z,8.09
2023-12-11T19:55:19.248Z,8.08
2023-12-11T19:57:46.266Z,7.89
2023-12-11T20:00:13.609Z,7.83
2023-12-11T20:02:40.460Z,7.71
2023-12-11T20:05:07.513Z,7.62
2023-12-11T20:07:34.694Z,7.54
2023-12-11T20:10:02.612Z,7.58
2023-12-11T20:12:34.872Z,7.52
2023-12-11T20:15:01.876Z,7.57
2023-12-11T20:17:29.084Z,7.65
2023-12-11T20:19:58.811Z,7.70
2023-12-11T20:22:25.761Z,7.70
2023-12-11T20:24:52.740Z,7.76
2023-12-11T20:27:19.585Z,7.82
2023-12-11T20:29:46.454Z,7.80
2023-12-11T20:32:13.340Z,7.80
2023-12-11T20:34:40.371Z,7.84
2023-12-11T20:37:07.386Z,7.83
2023-12-11T20:39:34.196Z,7.78
2023-12-11T20:42:00.990Z,7.71
2023-12-11T20:44:27.829Z,7.62
2023-12-11T20:46:54.665Z,7.47
2023-12-11T20:49:21.720Z,7.44
2023-12-11T20:51:48.794Z,7.39
2023-12-11T20:54:16.037Z,7.29
2023-12-11T20:56:42.985Z,7.26
2023-12-11T20:59:10.829Z,7.29
2023-12-11T21:01:39.080Z,7.33
2023-12-11T21:04:08.630Z,7.33
2023-12-11T21:06:38.658Z,7.33
2023-12-11T21:09:08.952Z,7.40
2023-12-11T21:11:36.860Z,7.40
2023-12-11T21:14:06.539Z,7.39
2023-12-11T21:16:36.520Z,7.45
2023-12-11T21:19:04.208Z,7.49
2023-12-11T21:21:31.364Z,7.50
2023-12-11T21:23:58.222Z,7.56
2023-12-11T21:26:26.430Z,7.65
2023-12-11T21:28:54.613Z,7.67
2023-12-11T21:31:26.041Z,7.78
2023-12-11T21:33:54.609Z,7.82
2023-12-11T21:36:22.870Z,7.80
2023-12-11T21:38:50.565Z,7.89
2023-12-11T21:41:18.045Z,7.84
2023-12-11T21:43:47.172Z,7.85
2023-12-11T21:46:14.963Z,7.95
2023-12-11T21:48:44.824Z,7.92
2023-12-11T21:51:17.312Z,7.92
2023-12-11T21:53:45.025Z,8.04
2023-12-11T21:56:12.325Z,8.04
2023-12-11T21:58:39.420Z,8.02
2023-12-11T22:01:06.326Z,7.95
2023-12-11T22:03:33.370Z,8.08
2023-12-11T22:06:00.621Z,7.92
2023-12-11T22:08:27.940Z,8.03
2023-12-11T22:10:55.112Z,8.13
2023-12-11T22:13:22.202Z,8.10
2023-12-11T22:15:49.154Z,8.09
2023-12-11T22:18:16.092Z,8.15
2023-12-11T22:20:44.364Z,8.05
2023-12-11T22:23:12.223Z,8.12
2023-12-11T22:25:39.106Z,8.19
2023-12-11T22:28:06.063Z,8.16
2023-12-11T22:30:33.031Z,8.19
2023-12-11T22:33:00.006Z,8.20
2023-12-11T22:35:26.861Z,8.18
2023-12-11T22:37:53.700Z,8.22
2023-12-11T22:40:20.694Z,8.19
2023-12-11T22:42:48.535Z,8.15
2023-12-11T22:45:17.843Z,8.02
2023-12-11T22:47:45.156Z,8.08
2023-12-11T22:50:12.213Z,8.07
2023-12-11T22:52:42.166Z,8.10
2023-12-11T22:55:09.667Z,8.03
2023-12-11T22:57:36.591Z,8.03
2023-12-11T23:00:03.814Z,8.00
2023-12-11T23:02:31.024Z,8.03
2023-12-11T23:04:58.508Z,8.02
2023-12-11T23:07:25.482Z,7.96
2023-12-11T23:09:52.477Z,7.99
2023-12-11T23:12:19.372Z,8.00
2023-12-11T23:14:46.143Z,7.94
2023-12-11T23:17:12.973Z,7.95
2023-12-11T23:19:40.054Z,7.95
2023-12-11T23:22:06.991Z,7.94
2023-12-11T23:24:33.825Z,7.94
2023-12-11T23:27:01.039Z,7.96
2023-12-11T23:29:27.948Z,7.88
2023-12-11T23:31:54.760Z,7.95
2023-12-11T23:34:21.791Z,7.98
2023-12-11T23:36:48.753Z,7.96
2023-12-11T23:39:15.663Z,7.93
2023-12-11T23:41:42.772Z,7.99
2023-12-11T23:44:09.629Z,7.95
2023-12-11T23:46:36.584Z,7.98
2023-12-11T23:49:03.634Z,7.91
2023-12-11T23:51:30.585Z,7.86
2023-12-11T23:53:57.404Z,7.97
2023-12-11T23:56:24.439Z,8.00
2023-12-11T23:58:51.563Z,7.95
